Time;durP1;ratioP1;P1;durP2;ratioP2;P2;SDS_P1;SDS_P2;PMS_P1;PMS_P2;Temp;Humidity;BMP_temperature;BMP_pressure;BME280_temperature;BME280_humidity;BME280_pressure;Samples;Min_cycle;Max_cycle;Signal;HPM_P1;HPM_P2
2021/12/01 00:02:12;;;;;;;1.20;1.02;;;17.40;53.50;;;;;;5152668;27;20393;-68
2021/12/01 00:04:38;;;;;;;1.40;1.27;;;17.40;53.50;;;;;;5152933;27;20038;-68
2021/12/01 00:07:11;;;;;;;2.47;1.08;;;17.40;53.60;;;;;;5151829;27;20126;-67
2021/12/01 00:09:37;;;;;;;1.52;0.73;;;17.50;53.70;;;;;;5152785;27;20057;-68
2021/12/01 00:12:03;;;;;;;1.60;1.10;;;17.40;53.50;;;;;;5151466;27;20034;-67
2021/12/01 00:14:32;;;;;;;2.42;1.10;;;17.40;53.60;;;;;;5151661;27;20427;-68
2021/12/01 00:16:57;;;;;;;2.33;1.48;;;17.40;53.70;;;;;;5150965;27;20042;-67
2021/12/01 00:19:23;;;;;;;1.30;1.05;;;17.40;53.80;;;;;;5152483;27;20027;-68
2021/12/01 00:21:49;;;;;;;1.88;1.10;;;17.40;53.80;;;;;;5151504;27;20561;-68
2021/12/01 00:24:14;;;;;;;3.45;1.55;;;17.40;53.80;;;;;;5152466;27;20293;-67
2021/12/01 00:26:40;;;;;;;1.73;1.30;;;17.30;53.90;;;;;;5151432;27;20045;-67
2021/12/01 00:29:08;;;;;;;2.90;1.23;;;17.30;53.90;;;;;;5151414;27;20045;-68
2021/12/01 00:31:34;;;;;;;2.03;0.88;;;17.30;53.90;;;;;;5152533;27;20066;-68
2021/12/01 00:34:01;;;;;;;2.22;1.50;;;17.30;53.90;;;;;;5151258;27;20073;-68
2021/12/01 00:36:28;;;;;;;2.25;0.75;;;17.30;54.00;;;;;;5150318;27;20050;-67
2021/12/01 00:38:54;;;;;;;2.03;1.25;;;17.30;54.00;;;;;;5152231;27;20427;-68
2021/12/01 00:41:22;;;;;;;2.55;1.55;;;17.30;54.70;;;;;;5151335;27;20034;-68
2021/12/01 00:43:47;;;;;;;1.33;0.60;;;17.30;53.90;;;;;;5152500;27;20031;-68
2021/12/01 00:46:19;;;;;;;2.17;1.30;;;17.30;53.90;;;;;;5151284;27;20611;-68
2021/12/01 00:48:45;;;;;;;2.65;1.17;;;17.30;54.00;;;;;;5152282;27;20045;-67
2021/12/01 00:51:15;;;;;;;1.70;1.00;;;17.30;53.90;;;;;;5151365;27;20031;-67
2021/12/01 00:53:41;;;;;;;2.90;1.60;;;17.30;54.00;;;;;;5151055;27;20474;-68
2021/12/01 00:56:07;;;;;;;3.28;1.20;;;17.30;54.10;;;;;;5150607;27;20039;-70
2021/12/01 00:58:33;;;;;;;3.00;1.83;;;17.30;54.20;;;;;;5151072;27;20367;-68
2021/12/01 01:01:00;;;;;;;4.05;0.90;;;17.40;54.10;;;;;;5150874;27;20424;-68
2021/12/01 01:03:28;;;;;;;1.38;0.60;;;17.50;53.90;;;;;;5151003;27;20076;-68
2021/12/01 01:05:54;;;;;;;1.27;0.45;;;18.10;53.00;;;;;;5150942;27;20098;-68
2021/12/01 01:08:20;;;;;;;1.83;0.47;;;18.80;51.30;;;;;;5151335;27;20554;-69
2021/12/01 01:11:08;;;;;;;0.77;0.40;;;19.70;49.30;;;;;;5151139;27;20046;-67
2021/12/01 01:16:23;;;;;;;2.63;0.43;;;21.50;45.90;;;;;;5108997;28;20092;-68
2021/12/01 01:18:54;;;;;;;1.27;0.30;;;22.90;43.00;;;;;;5109462;28;20039;-67
2021/12/01 01:21:22;;;;;;;1.63;0.30;;;24.00;40.80;;;;;;5109337;28;20466;-68
2021/12/01 01:23:48;;;;;;;1.60;0.40;;;25.10;38.90;;;;;;5112809;28;20601;-68
2021/12/01 01:26:16;;;;;;;1.88;0.30;;;25.90;37.40;;;;;;5113431;28;20048;-69
2021/12/01 01:28:45;;;;;;;1.88;0.30;;;26.50;36.30;;;;;;5114986;28;20047;-69
2021/12/01 01:31:13;;;;;;;0.60;0.30;;;27.00;35.50;;;;;;5114710;28;20122;-68
2021/12/01 01:33:39;;;;;;;1.75;0.30;;;27.30;34.90;;;;;;5113569;28;20398;-70
2021/12/01 01:36:05;;;;;;;0.77;0.30;;;27.50;34.40;;;;;;5112598;28;20042;-71
2021/12/01 01:38:32;;;;;;;0.98;0.30;;;27.60;34.20;;;;;;5113090;28;20051;-70
2021/12/01 01:41:00;;;;;;;1.27;0.30;;;27.50;34.00;;;;;;5114284;28;20367;-69
2021/12/01 01:43:26;;;;;;;0.82;0.20;;;27.30;34.00;;;;;;5113244;28;20172;-70
2021/12/01 01:45:53;;;;;;;1.10;0.20;;;27.10;34.30;;;;;;5113256;28;20118;-70
2021/12/01 01:48:22;;;;;;;0.75;0.20;;;26.70;34.60;;;;;;5114326;28;20035;-69
2021/12/01 01:50:48;;;;;;;0.52;0.10;;;26.40;35.00;;;;;;5112972;28;20052;-69
2021/12/01 01:53:20;;;;;;;0.75;0.20;;;26.00;35.50;;;;;;5113270;28;20046;-70
2021/12/01 01:55:49;;;;;;;0.80;0.20;;;25.60;35.90;;;;;;5112755;28;20139;-70
2021/12/01 01:58:15;;;;;;;1.38;0.20;;;25.20;36.50;;;;;;5112471;28;20222;-69
2021/12/01 02:01:26;;;;;;;0.75;0.20;;;24.70;37.20;;;;;;5112172;28;20043;-70
2021/12/01 02:03:28;;;;;;;0.70;0.30;;;24.30;38.00;;;;;;5113643;28;20100;-70
2021/12/01 02:05:55;;;;;;;0.77;0.20;;;23.80;38.80;;;;;;5113972;28;20039;-68
2021/12/01 02:08:28;;;;;;;1.00;0.20;;;23.50;39.60;;;;;;5114048;28;20054;-69
2021/12/01 02:10:55;;;;;;;0.50;0.20;;;23.20;40.20;;;;;;5112667;28;20079;-70
2021/12/01 02:13:22;;;;;;;0.50;0.20;;;22.90;41.00;;;;;;5112498;28;20040;-69
2021/12/01 02:15:52;;;;;;;0.60;0.20;;;22.50;41.50;;;;;;5112296;28;20667;-70
2021/12/01 02:18:18;;;;;;;0.47;0.15;;;22.30;42.00;;;;;;5111912;28;20487;-69
2021/12/01 02:21:06;;;;;;;0.70;0.10;;;22.20;42.30;;;;;;5111875;28;20051;-70
2021/12/01 02:23:34;;;;;;;0.55;0.30;;;22.10;42.40;;;;;;5110267;28;20043;-67
2021/12/01 02:26:01;;;;;;;0.73;0.28;;;22.10;42.70;;;;;;5112324;28;20043;-68
2021/12/01 02:28:26;;;;;;;0.40;0.10;;;22.10;42.80;;;;;;5113975;28;20363;-68
2021/12/01 02:30:52;;;;;;;0.70;0.30;;;22.10;42.80;;;;;;5111965;28;20034;-68
2021/12/01 02:33:18;;;;;;;0.60;0.10;;;22.10;42.80;;;;;;5112079;28;20378;-68
2021/12/01 02:35:44;;;;;;;1.45;0.10;;;22.20;42.70;;;;;;5113287;28;20042;-68
2021/12/01 02:38:10;;;;;;;0.52;0.10;;;22.40;42.30;;;;;;5111114;28;20429;-69
2021/12/01 02:40:35;;;;;;;0.30;0.10;;;22.60;42.00;;;;;;5111950;28;20040;-68
2021/12/01 02:43:01;;;;;;;0.40;0.10;;;22.70;41.70;;;;;;5111712;28;20463;-68
2021/12/01 02:45:27;;;;;;;0.50;0.00;;;22.80;41.60;;;;;;5113287;28;20479;-69
2021/12/01 02:47:53;;;;;;;0.98;0.17;;;23.00;41.40;;;;;;5129278;27;20042;-68
2021/12/01 02:50:18;;;;;;;0.30;0.10;;;23.10;41.10;;;;;;5131655;27;20471;-69
2021/12/01 02:52:47;;;;;;;0.30;0.10;;;23.20;41.10;;;;;;5133047;27;20118;-68
2021/12/01 02:55:18;;;;;;;0.77;0.20;;;23.10;41.10;;;;;;5131706;27;20049;-68
2021/12/01 03:00:24;;;;;;;0.55;0.20;;;23.10;41.10;;;;;;5128948;27;20379;-68
2021/12/01 03:02:51;;;;;;;0.32;0.10;;;22.60;41.90;;;;;;5127797;28;20048;-68
2021/12/01 03:05:18;;;;;;;0.57;0.10;;;22.50;42.30;;;;;;5127873;28;20478;-68
2021/12/01 03:07:45;;;;;;;0.55;0.00;;;22.40;42.60;;;;;;5127328;28;20048;-68
2021/12/01 03:10:12;;;;;;;0.47;0.10;;;22.20;42.80;;;;;;5127233;27;20050;-68
2021/12/01 03:12:40;;;;;;;0.35;0.10;;;22.10;43.10;;;;;;5127330;27;20124;-68
2021/12/01 03:15:09;;;;;;;0.10;0.00;;;22.10;43.30;;;;;;5128280;27;20050;-68
2021/12/01 03:17:35;;;;;;;0.25;0.00;;;22.00;43.40;;;;;;5127109;28;20043;-68
2021/12/01 03:20:01;;;;;;;0.68;0.10;;;21.90;43.70;;;;;;5127150;28;20040;-67
2021/12/01 03:22:27;;;;;;;1.05;0.10;;;21.80;43.90;;;;;;5127123;28;20118;-68
2021/12/01 03:24:54;;;;;;;0.40;0.00;;;21.80;43.90;;;;;;5127033;28;20108;-68
2021/12/01 03:27:20;;;;;;;0.55;0.10;;;21.80;43.90;;;;;;5127267;28;20435;-68
2021/12/01 03:29:48;;;;;;;0.50;0.10;;;21.80;43.70;;;;;;5126979;28;20078;-67
2021/12/01 03:32:14;;;;;;;0.68;0.00;;;21.80;43.70;;;;;;5126707;28;20051;-68
2021/12/01 03:34:41;;;;;;;0.30;0.10;;;21.80;43.80;;;;;;5127254;28;20047;-70
2021/12/01 03:37:10;;;;;;;0.85;0.10;;;21.80;43.90;;;;;;5144541;27;20067;-67
2021/12/01 03:39:37;;;;;;;0.43;0.10;;;21.70;44.20;;;;;;5127564;28;20047;-68
2021/12/01 03:42:04;;;;;;;0.32;0.00;;;21.50;44.30;;;;;;5128102;27;20127;-67
2021/12/01 03:44:31;;;;;;;0.32;0.10;;;21.50;44.50;;;;;;5127653;28;20036;-68
2021/12/01 03:46:56;;;;;;;0.55;0.00;;;21.40;44.60;;;;;;5128997;27;20060;-69
2021/12/01 03:49:22;;;;;;;0.35;0.10;;;21.50;44.60;;;;;;5127944;27;20122;-68
2021/12/01 03:51:48;;;;;;;0.57;0.05;;;21.70;44.30;;;;;;5143677;27;20046;-67
2021/12/01 03:54:13;;;;;;;0.30;0.10;;;21.80;43.90;;;;;;5127842;28;20032;-69
2021/12/01 03:56:42;;;;;;;0.85;0.00;;;21.90;43.80;;;;;;5126331;28;20062;-68
2021/12/01 03:59:07;;;;;;;0.35;0.08;;;21.90;43.80;;;;;;5126767;27;20458;-68
2021/12/01 04:01:34;;;;;;;0.30;0.10;;;21.80;43.90;;;;;;5128670;27;20047;-68
2021/12/01 04:03:59;;;;;;;0.88;0.20;;;21.80;44.70;;;;;;5127125;28;20073;-67
2021/12/01 04:06:27;;;;;;;0.55;0.10;;;21.80;44.00;;;;;;5127256;28;20082;-67
2021/12/01 04:08:54;;;;;;;0.38;0.10;;;21.70;44.10;;;;;;5126467;28;20142;-68
2021/12/01 04:11:21;;;;;;;0.10;0.00;;;21.80;44.10;;;;;;5115520;27;20397;-69
2021/12/01 04:13:47;;;;;;;0.15;0.00;;;21.90;43.80;;;;;;5113677;28;20483;-67
2021/12/01 04:16:12;;;;;;;0.28;0.00;;;22.10;43.60;;;;;;5112186;28;20036;-68
2021/12/01 04:18:39;;;;;;;0.63;0.10;;;22.20;43.30;;;;;;5113865;28;20044;-67
2021/12/01 04:21:04;;;;;;;0.50;0.08;;;22.30;43.10;;;;;;5096153;28;20495;-69
2021/12/01 04:23:34;;;;;;;0.30;0.08;;;22.20;43.00;;;;;;5113005;28;20077;-69
2021/12/01 04:26:00;;;;;;;0.10;0.00;;;22.20;43.00;;;;;;5114501;28;20032;-69
2021/12/01 04:28:26;;;;;;;1.35;0.00;;;22.30;43.10;;;;;;5113853;28;20082;-69
2021/12/01 04:30:52;;;;;;;0.52;0.00;;;22.30;43.00;;;;;;5112073;28;20360;-69
2021/12/01 04:33:17;;;;;;;0.60;0.00;;;22.30;43.00;;;;;;5113169;28;20437;-69
2021/12/01 04:35:44;;;;;;;0.40;0.00;;;22.20;43.00;;;;;;5113211;28;20123;-68
2021/12/01 04:38:10;;;;;;;0.43;0.00;;;22.20;43.10;;;;;;5112228;28;20062;-68
2021/12/01 04:40:36;;;;;;;0.08;0.00;;;22.10;43.20;;;;;;5114185;28;20043;-68
2021/12/01 04:43:05;;;;;;;0.17;0.00;;;22.10;43.30;;;;;;5112822;28;20039;-67
2021/12/01 04:45:32;;;;;;;0.20;0.00;;;21.90;43.50;;;;;;5114149;28;20039;-69
2021/12/01 04:47:58;;;;;;;0.20;0.00;;;21.90;43.70;;;;;;5112474;28;20088;-68
2021/12/01 04:50:26;;;;;;;0.15;0.00;;;21.80;43.90;;;;;;5112698;28;20036;-68
2021/12/01 04:52:54;;;;;;;0.10;0.00;;;21.70;44.00;;;;;;5111778;28;20068;-68
2021/12/01 04:55:20;;;;;;;0.20;0.10;;;21.60;44.10;;;;;;5128512;27;20047;-67
2021/12/01 04:57:46;;;;;;;0.50;0.00;;;21.60;44.30;;;;;;5112945;28;20036;-68
2021/12/01 05:00:16;;;;;;;0.20;0.00;;;21.50;44.40;;;;;;5112127;28;20617;-67
2021/12/01 05:02:42;;;;;;;0.77;0.00;;;21.50;44.50;;;;;;5112403;28;20486;-68
2021/12/01 05:05:08;;;;;;;0.40;0.00;;;21.50;44.60;;;;;;5113122;28;20031;-67
2021/12/01 05:07:33;;;;;;;0.40;0.00;;;21.60;44.50;;;;;;5112301;28;20685;-68
2021/12/01 05:09:59;;;;;;;0.10;0.00;;;21.60;44.30;;;;;;5111005;28;20040;-68
2021/12/01 05:12:25;;;;;;;0.20;0.00;;;21.60;44.30;;;;;;5111010;28;20055;-68
2021/12/01 05:14:54;;;;;;;0.22;0.00;;;21.50;44.40;;;;;;5111265;28;20039;-69
2021/12/01 05:17:20;;;;;;;0.10;0.00;;;21.60;44.50;;;;;;5111382;28;20128;-67
2021/12/01 05:19:48;;;;;;;0.10;0.00;;;21.60;44.30;;;;;;5111668;28;20043;-68
2021/12/01 05:22:14;;;;;;;0.00;0.00;;;21.60;44.30;;;;;;5111363;28;20060;-68
2021/12/01 05:24:40;;;;;;;0.20;0.00;;;21.60;44.20;;;;;;5113139;28;20443;-68
2021/12/01 05:27:06;;;;;;;0.05;0.00;;;21.70;44.00;;;;;;5112322;28;20058;-68
2021/12/01 05:29:32;;;;;;;0.03;0.00;;;21.70;44.00;;;;;;5111185;28;20043;-67
2021/12/01 05:31:57;;;;;;;0.30;0.00;;;21.70;44.10;;;;;;5112008;28;20378;-67
2021/12/01 05:34:27;;;;;;;0.20;0.00;;;21.70;44.10;;;;;;5110817;28;20054;-68
2021/12/01 05:36:54;;;;;;;0.00;0.00;;;21.70;44.10;;;;;;5110715;28;20551;-67
2021/12/01 05:39:20;;;;;;;0.28;0.00;;;21.60;44.10;;;;;;5112287;28;20039;-67
2021/12/01 05:41:46;;;;;;;0.00;0.00;;;21.70;44.10;;;;;;5111773;28;20449;-67
2021/12/01 05:44:12;;;;;;;0.45;0.00;;;21.70;44.00;;;;;;5111827;28;20040;-67
2021/12/01 05:46:38;;;;;;;0.00;0.00;;;21.70;44.00;;;;;;5111660;28;20402;-67
2021/12/01 05:49:04;;;;;;;0.08;0.00;;;21.60;43.90;;;;;;5112040;28;20131;-67
2021/12/01 05:51:30;;;;;;;0.00;0.00;;;21.60;44.00;;;;;;5110237;28;20483;-68
2021/12/01 05:53:56;;;;;;;0.00;0.00;;;21.70;44.00;;;;;;5110500;28;20054;-67
2021/12/01 05:56:24;;;;;;;0.00;0.00;;;21.70;44.00;;;;;;5111438;28;20043;-69
2021/12/01 05:58:50;;;;;;;0.35;0.00;;;21.70;43.90;;;;;;5111574;28;20058;-68
2021/12/01 06:01:19;;;;;;;2.78;0.30;;;21.70;43.80;;;;;;5112536;28;20036;-68
2021/12/01 06:03:44;;;;;;;0.10;0.00;;;21.70;43.80;;;;;;5111603;28;20043;-67
2021/12/01 06:06:10;;;;;;;0.05;0.00;;;21.70;44.00;;;;;;5111171;28;20486;-68
2021/12/01 06:08:36;;;;;;;0.30;0.00;;;21.60;43.80;;;;;;5110931;28;20052;-69
2021/12/01 06:11:02;;;;;;;0.22;0.00;;;21.60;43.90;;;;;;5109830;28;20039;-68
2021/12/01 06:13:28;;;;;;;0.10;0.00;;;21.60;43.80;;;;;;5110114;28;20043;-68
2021/12/01 06:15:53;;;;;;;0.10;0.00;;;21.60;43.80;;;;;;5110075;28;20058;-68
2021/12/01 06:18:19;;;;;;;0.00;0.00;;;21.60;43.70;;;;;;5110085;28;20579;-67
2021/12/01 06:20:45;;;;;;;0.00;0.00;;;21.60;43.60;;;;;;5111998;28;20089;-67
2021/12/01 06:23:12;;;;;;;0.10;0.00;;;21.60;43.60;;;;;;5112097;28;20035;-68
2021/12/01 06:25:37;;;;;;;0.13;0.00;;;21.70;43.50;;;;;;5110095;28;20707;-67
2021/12/01 06:28:04;;;;;;;0.10;0.00;;;21.80;43.30;;;;;;5110133;28;20039;-69
2021/12/01 06:30:33;;;;;;;0.00;0.00;;;21.80;43.20;;;;;;5109915;28;20040;-67
2021/12/01 06:32:59;;;;;;;0.28;0.00;;;21.90;43.10;;;;;;5109360;28;20106;-68
2021/12/01 06:35:25;;;;;;;0.05;0.00;;;21.90;43.00;;;;;;5110748;28;20114;-68
2021/12/01 06:37:53;;;;;;;0.10;0.00;;;21.90;43.00;;;;;;5108869;28;20071;-68
2021/12/01 06:40:19;;;;;;;0.00;0.00;;;21.80;43.10;;;;;;5109583;28;20047;-67
2021/12/01 06:42:45;;;;;;;0.08;0.03;;;21.70;43.20;;;;;;5108573;28;20035;-68
2021/12/01 06:45:16;;;;;;;0.25;0.00;;;21.80;43.30;;;;;;5109006;28;20043;-68
2021/12/01 06:47:42;;;;;;;0.00;0.00;;;21.80;43.20;;;;;;5109673;28;20111;-67
2021/12/01 06:50:09;;;;;;;0.00;0.00;;;21.70;43.20;;;;;;5109022;28;20035;-68
2021/12/01 06:52:35;;;;;;;1.50;0.00;;;21.60;43.20;;;;;;5108104;28;20043;-65
2021/12/01 06:55:02;;;;;;;1.67;0.00;;;21.60;43.50;;;;;;5104538;28;20505;-63
2021/12/01 06:57:28;;;;;;;3.22;0.00;;;21.50;43.70;;;;;;5103037;28;20380;-64
2021/12/01 06:59:54;;;;;;;1.50;0.00;;;21.60;43.80;;;;;;5098407;28;20051;-65
2021/12/01 07:02:20;;;;;;;1.40;0.00;;;21.50;44.80;;;;;;5092606;28;20048;-64
2021/12/01 07:04:46;;;;;;;0.73;0.00;;;21.50;44.30;;;;;;5087784;28;20517;-65
2021/12/01 07:07:12;;;;;;;1.90;0.00;;;21.50;44.30;;;;;;5089465;28;20578;-65
2021/12/01 07:09:38;;;;;;;1.40;0.00;;;21.50;44.50;;;;;;5086581;28;20188;-65
2021/12/01 07:12:05;;;;;;;0.05;0.00;;;21.40;44.60;;;;;;5087180;28;20402;-65
2021/12/01 07:14:30;;;;;;;1.25;0.00;;;21.40;44.70;;;;;;5074534;28;20044;-66
2021/12/01 07:16:56;;;;;;;0.43;0.00;;;21.40;45.50;;;;;;5082598;28;20068;-70
2021/12/01 07:19:22;;;;;;;1.45;0.00;;;21.20;44.80;;;;;;5087107;28;20070;-70
2021/12/01 07:21:48;;;;;;;0.85;0.00;;;21.00;45.20;;;;;;5091196;28;20067;-70
2021/12/01 07:24:16;;;;;;;1.42;0.03;;;21.00;45.50;;;;;;5092314;28;20116;-66
2021/12/01 07:26:42;;;;;;;2.47;0.00;;;21.00;45.70;;;;;;5090520;28;20051;-67
2021/12/01 07:29:08;;;;;;;0.45;0.00;;;20.90;45.70;;;;;;5093338;28;20047;-67
2021/12/01 07:31:34;;;;;;;1.40;0.08;;;20.90;45.80;;;;;;5093538;28;20044;-65
2021/12/01 07:34:00;;;;;;;3.75;0.00;;;20.80;46.10;;;;;;5092139;28;20070;-67
2021/12/01 07:36:26;;;;;;;1.58;0.00;;;20.70;46.50;;;;;;5095717;28;20826;-65
2021/12/01 07:38:53;;;;;;;2.65;0.00;;;20.70;46.70;;;;;;5087859;28;20572;-66
2021/12/01 07:41:20;;;;;;;1.88;0.10;;;20.70;46.50;;;;;;5096459;28;20452;-65
2021/12/01 07:43:47;;;;;;;0.85;0.00;;;20.80;46.50;;;;;;5093613;28;20491;-66
2021/12/01 07:46:13;;;;;;;0.98;0.00;;;20.80;46.60;;;;;;5094525;28;20043;-68
2021/12/01 07:48:39;;;;;;;0.28;0.00;;;20.70;46.80;;;;;;5092387;28;20040;-67
2021/12/01 07:51:05;;;;;;;0.75;0.00;;;20.70;47.30;;;;;;5112470;27;20051;-67
2021/12/01 07:53:31;;;;;;;1.10;0.00;;;20.70;47.50;;;;;;5095238;27;20050;-66
2021/12/01 07:55:57;;;;;;;0.40;0.03;;;20.80;47.60;;;;;;5096784;27;20744;-67
2021/12/01 07:58:23;;;;;;;0.52;0.00;;;20.80;47.20;;;;;;5099019;27;20052;-67
2021/12/01 08:00:49;;;;;;;1.08;0.00;;;20.80;46.70;;;;;;5096035;28;20886;-66
2021/12/01 08:03:14;;;;;;;1.15;0.00;;;21.00;46.70;;;;;;5096604;28;20062;-66
2021/12/01 08:05:40;;;;;;;2.22;0.00;;;21.00;46.60;;;;;;5096832;28;20065;-65
2021/12/01 08:08:06;;;;;;;0.35;0.00;;;21.10;46.30;;;;;;5092535;28;20087;-66
2021/12/01 08:10:32;;;;;;;0.90;0.00;;;21.20;45.90;;;;;;5092628;28;20043;-66
2021/12/01 08:13:00;;;;;;;0.85;0.00;;;21.40;45.70;;;;;;5092465;27;20511;-66
2021/12/01 08:15:27;;;;;;;0.95;0.00;;;21.40;45.40;;;;;;5095416;27;20399;-66
2021/12/01 08:17:53;;;;;;;3.33;0.00;;;21.50;45.30;;;;;;5091605;27;20035;-66
2021/12/01 08:20:20;;;;;;;0.35;0.10;;;21.60;45.10;;;;;;5093903;27;20040;-67
2021/12/01 08:22:48;;;;;;;0.45;0.00;;;21.60;45.00;;;;;;5093156;28;20044;-67
2021/12/01 08:25:15;;;;;;;0.25;0.00;;;21.60;45.00;;;;;;5091134;28;20043;-67
2021/12/01 08:27:41;;;;;;;1.42;0.00;;;21.60;45.00;;;;;;5079634;28;21059;-71
2021/12/01 08:30:08;;;;;;;2.60;0.00;;;21.50;45.20;;;;;;5095191;27;20035;-66
2021/12/01 08:32:34;;;;;;;1.52;0.03;;;21.50;45.30;;;;;;5091892;27;20062;-76
2021/12/01 08:35:00;;;;;;;0.17;0.00;;;21.40;45.40;;;;;;5090860;28;20043;-71
2021/12/01 08:37:26;;;;;;;2.50;0.10;;;21.40;45.50;;;;;;5090447;28;20055;-71
2021/12/01 08:39:52;;;;;;;0.20;0.10;;;21.30;45.70;;;;;;5091841;28;20047;-70
2021/12/01 08:42:20;;;;;;;0.20;0.00;;;21.30;45.90;;;;;;5104534;27;20039;-66
2021/12/01 08:44:47;;;;;;;0.38;0.00;;;21.20;46.10;;;;;;5091370;28;20051;-67
2021/12/01 08:47:15;;;;;;;2.58;0.00;;;21.10;46.20;;;;;;5091095;28;20043;-75
2021/12/01 08:49:42;;;;;;;0.40;0.00;;;21.10;46.40;;;;;;5087776;28;20058;-72
2021/12/01 08:52:08;;;;;;;1.55;0.00;;;21.00;46.30;;;;;;5090702;27;20039;-66
2021/12/01 08:54:34;;;;;;;1.05;0.10;;;20.90;46.50;;;;;;5088985;27;20032;-69
2021/12/01 08:57:03;;;;;;;0.60;0.00;;;20.80;46.80;;;;;;5089113;27;20050;-70
2021/12/01 08:59:29;;;;;;;3.05;0.08;;;20.80;47.20;;;;;;5092119;27;20494;-66
2021/12/01 09:01:55;;;;;;;1.85;0.10;;;20.80;47.30;;;;;;5090834;27;20055;-67
2021/12/01 09:04:21;;;;;;;0.57;0.20;;;20.70;47.30;;;;;;5108124;27;20064;-65
2021/12/01 09:06:47;;;;;;;2.65;0.10;;;20.70;47.60;;;;;;5091236;27;20129;-68
2021/12/01 09:09:18;;;;;;;1.92;0.10;;;20.60;47.70;;;;;;5092981;27;20662;-65
2021/12/01 09:11:45;;;;;;;3.50;0.20;;;20.50;47.40;;;;;;5110700;27;20055;-64
2021/12/01 09:14:11;;;;;;;2.65;0.10;;;20.50;47.60;;;;;;5097572;28;20063;-65
2021/12/01 09:16:37;;;;;;;0.63;0.43;;;20.50;47.60;;;;;;5091245;28;20043;-64
2021/12/01 09:19:02;;;;;;;1.83;0.20;;;20.60;47.60;;;;;;5090625;28;20055;-73
2021/12/01 09:21:28;;;;;;;2.10;0.10;;;20.60;47.50;;;;;;5092802;28;20043;-71
2021/12/01 09:23:54;;;;;;;3.22;0.20;;;20.60;47.40;;;;;;5094979;27;20035;-69
2021/12/01 09:26:20;;;;;;;2.22;0.80;;;20.50;46.90;;;;;;5091948;27;20051;-73
2021/12/01 09:28:46;;;;;;;5.00;0.30;;;20.50;46.70;;;;;;5089449;27;20572;-70
2021/12/01 09:31:12;;;;;;;2.35;0.20;;;20.60;46.60;;;;;;5108426;27;20188;-71
2021/12/01 09:33:37;;;;;;;3.13;0.10;;;20.70;46.20;;;;;;5081297;28;20154;-66
2021/12/01 09:36:04;;;;;;;0.88;0.10;;;20.90;45.90;;;;;;5090703;28;20111;-66
2021/12/01 09:38:30;;;;;;;5.35;0.40;;;21.10;45.60;;;;;;5093789;28;20631;-66
2021/12/01 09:40:57;;;;;;;3.05;0.30;;;21.30;45.10;;;;;;5094086;28;20700;-66
2021/12/01 09:43:27;;;;;;;4.20;0.93;;;21.30;44.80;;;;;;5107796;27;20072;-67
2021/12/01 09:45:54;;;;;;;4.25;0.50;;;21.30;44.60;;;;;;5092558;27;20086;-62
2021/12/01 09:48:20;;;;;;;4.07;0.40;;;21.50;44.40;;;;;;5093446;27;20044;-64
2021/12/01 09:50:46;;;;;;;10.02;0.40;;;21.60;43.90;;;;;;5090675;27;20066;-64
2021/12/01 09:53:12;;;;;;;5.40;0.28;;;21.60;43.70;;;;;;5092088;27;20047;-66
2021/12/01 09:55:41;;;;;;;4.93;0.30;;;21.50;43.80;;;;;;5090207;28;20035;-64
2021/12/01 09:58:11;;;;;;;4.20;0.25;;;21.50;43.90;;;;;;5092821;28;20062;-69
2021/12/01 10:00:41;;;;;;;5.68;1.42;;;21.30;43.90;;;;;;5081058;28;20155;-62
2021/12/01 10:03:07;;;;;;;1.70;0.20;;;21.30;44.30;;;;;;5090233;28;20329;-63
2021/12/01 10:08:30;;;;;;;4.82;0.50;;;21.40;44.20;;;;;;5069054;28;20531;-67
2021/12/01 10:10:57;;;;;;;2.90;0.30;;;21.90;43.40;;;;;;5057085;28;20123;-68
2021/12/01 10:16:10;;;;;;;4.03;0.40;;;22.30;42.50;;;;;;5063816;27;20412;-65
2021/12/01 10:21:21;;;;;;;2.97;0.40;;;22.50;42.20;;;;;;5064795;27;20438;-67
2021/12/01 10:23:48;;;;;;;;;;;22.50;41.70;;;;;;5055575;28;20049;-67
2021/12/01 10:26:17;;;;;;;1.60;0.20;;;22.40;42.10;;;;;;5050888;28;19927;-66
2021/12/01 10:28:47;;;;;;;2.05;0.40;;;22.20;42.20;;;;;;5053191;28;20413;-67
2021/12/01 10:31:14;;;;;;;1.75;0.20;;;22.10;42.60;;;;;;5053235;28;20055;-67
2021/12/01 10:33:41;;;;;;;1.95;0.30;;;21.90;42.70;;;;;;5052307;28;20099;-67
2021/12/01 10:36:08;;;;;;;2.92;0.28;;;21.80;43.00;;;;;;5057028;28;20045;-66
2021/12/01 10:38:38;;;;;;;5.07;0.38;;;21.60;42.90;;;;;;5087780;28;20052;-66
2021/12/01 10:41:07;;;;;;;3.97;0.33;;;21.50;43.30;;;;;;5087896;28;20044;-65
2021/12/01 10:43:36;;;;;;;4.18;0.30;;;21.30;43.80;;;;;;5053515;28;20128;-65
2021/12/01 10:46:08;;;;;;;7.35;0.55;;;21.20;43.90;;;;;;5055696;28;20047;-65
2021/12/01 10:48:34;;;;;;;3.95;0.45;;;20.90;44.10;;;;;;5056545;28;20123;-64
2021/12/01 10:51:00;;;;;;;8.32;0.40;;;20.80;44.40;;;;;;5082842;28;20045;-67
2021/12/01 10:53:26;;;;;;;3.05;0.32;;;20.70;44.80;;;;;;5054288;28;20409;-67
2021/12/01 10:55:58;;;;;;;4.45;0.40;;;20.70;45.00;;;;;;5052734;28;20072;-65
2021/12/01 10:58:41;;;;;;;1.98;0.40;;;20.50;45.10;;;;;;5050633;28;20064;-65
2021/12/01 11:01:19;;;;;;;3.53;0.43;;;20.50;45.30;;;;;;5054812;28;20128;-65
2021/12/01 11:03:45;;;;;;;4.88;0.30;;;20.40;45.30;;;;;;5053527;28;20037;-65
2021/12/01 11:08:57;;;;;;;2.95;0.47;;;20.40;45.50;;;;;;5092014;27;20510;-66
2021/12/01 11:11:25;;;;;;;2.65;0.40;;;20.40;45.40;;;;;;5107078;27;20039;-65
2021/12/01 11:13:51;;;;;;;2.70;0.73;;;20.40;45.20;;;;;;5124015;27;20054;-66
2021/12/01 11:16:18;;;;;;;6.80;0.45;;;20.40;45.20;;;;;;5109264;27;20028;-66
2021/12/01 11:18:47;;;;;;;2.70;0.50;;;20.40;45.10;;;;;;5117820;27;20050;-66
2021/12/01 11:23:57;;;;;;;4.47;0.45;;;20.50;45.20;;;;;;5110729;27;20507;-68
2021/12/01 11:26:26;;;;;;;3.65;0.50;;;20.60;45.30;;;;;;5100555;27;20705;-64
2021/12/01 11:28:55;;;;;;;4.10;0.35;;;20.70;45.50;;;;;;5100812;27;20082;-64
2021/12/01 11:34:04;;;;;;;5.28;0.60;;;20.70;45.60;;;;;;5077446;27;20490;-64
2021/12/01 11:36:34;;;;;;;2.35;0.40;;;20.90;45.20;;;;;;5045603;28;20084;-65
2021/12/01 11:39:04;;;;;;;5.15;0.32;;;21.00;45.20;;;;;;5066927;28;20128;-69
2021/12/01 11:41:31;;;;;;;3.63;0.52;;;21.00;44.70;;;;;;5053211;28;20134;-68
2021/12/01 11:43:58;;;;;;;3.42;0.55;;;21.00;44.20;;;;;;5056070;28;20049;-67
2021/12/01 11:46:24;;;;;;;3.55;0.30;;;20.90;43.70;;;;;;5057529;28;20062;-67
2021/12/01 11:48:53;;;;;;;5.00;0.73;;;20.80;43.70;;;;;;5074911;28;20618;-70
2021/12/01 11:54:12;;;;;;;3.63;0.75;;;20.80;43.90;;;;;;5107115;27;20400;-70
2021/12/01 11:56:47;;;;;;;5.50;0.95;;;20.80;43.90;;;;;;5093825;28;20485;-69
2021/12/01 12:02:00;;;;;;;4.93;0.68;;;20.80;44.00;;;;;;5105131;27;20360;-64
2021/12/01 12:04:47;;;;;;;3.65;0.65;;;20.80;44.10;;;;;;5078033;28;20395;-66
2021/12/01 12:07:19;;;;;;;4.43;0.85;;;20.80;43.70;;;;;;5088973;28;20055;-64
2021/12/01 12:10:10;;;;;;;3.63;0.60;;;20.70;43.40;;;;;;5084387;28;20087;-63
2021/12/01 12:21:21;;;;;;;6.07;0.63;;;20.70;44.00;;;;;;5104434;27;20412;-64
2021/12/01 12:23:49;;;;;;;5.50;0.68;;;20.80;43.90;;;;;;5104219;28;20441;-64
2021/12/01 12:26:40;;;;;;;4.47;0.90;;;20.80;43.70;;;;;;5103311;28;20069;-64
2021/12/01 12:29:09;;;;;;;6.88;1.48;;;20.70;43.60;;;;;;5102299;28;20043;-64
2021/12/01 12:31:36;;;;;;;3.45;0.60;;;20.60;43.80;;;;;;5102642;28;20453;-65
2021/12/01 12:34:04;;;;;;;5.20;0.73;;;20.60;43.90;;;;;;5105350;28;20059;-64
2021/12/01 12:36:53;;;;;;;4.07;0.60;;;20.50;44.20;;;;;;5106236;28;20036;-65
2021/12/01 12:42:09;;;;;;;6.53;0.68;;;20.30;44.50;;;;;;5112326;27;20363;-64
2021/12/01 12:50:01;;;;;;;4.80;1.35;;;20.30;45.00;;;;;;5085703;27;20421;-65
2021/12/01 12:58:08;;;;;;;4.47;0.60;;;20.40;44.80;;;;;;5126441;27;20395;-66
2021/12/01 13:03:32;;;;;;;6.68;1.05;;;20.40;44.30;;;;;;5084567;27;20420;-66
2021/12/01 13:06:01;;;;;;;5.00;0.60;;;20.50;44.40;;;;;;5091809;28;20047;-65
2021/12/01 13:11:19;;;;;;;5.65;0.98;;;20.50;44.40;;;;;;5126662;27;20104;-63
2021/12/01 13:16:29;;;;;;;3.92;1.00;;;20.50;44.10;;;;;;5085494;28;20429;-64
2021/12/01 13:19:02;;;;;;;5.07;0.77;;;20.40;43.30;;;;;;5085442;28;20048;-62
2021/12/01 13:21:27;;;;;;;5.63;0.80;;;20.40;43.40;;;;;;5091756;28;20040;-62
2021/12/01 13:23:58;;;;;;;5.72;0.93;;;20.40;43.60;;;;;;5092778;28;20093;-66
2021/12/01 13:26:31;;;;;;;5.32;0.80;;;20.30;43.40;;;;;;5092147;28;20698;-63
2021/12/01 13:29:06;;;;;;;4.10;0.75;;;20.30;43.30;;;;;;5094047;28;20586;-65
2021/12/01 13:31:37;;;;;;;5.55;0.57;;;20.30;43.20;;;;;;5089466;28;20124;-63
2021/12/01 13:36:53;;;;;;;4.95;1.13;;;20.00;43.00;;;;;;5086977;27;21099;-63
2021/12/01 13:42:10;;;;;;;4.70;0.65;;;19.90;43.20;;;;;;5127617;27;20108;-66
2021/12/01 13:44:39;;;;;;;3.47;0.60;;;19.70;43.80;;;;;;5110472;28;20057;-63
2021/12/01 13:47:09;;;;;;;4.70;0.50;;;19.50;43.80;;;;;;5110580;28;20530;-65
2021/12/01 13:52:39;;;;;;;3.05;0.50;;;19.50;44.20;;;;;;5126314;27;20354;-63
2021/12/01 13:58:15;;;;;;;4.18;0.60;;;19.10;44.70;;;;;;5087176;28;20428;-63
2021/12/01 14:03:22;;;;;;;2.70;0.60;;;19.20;44.80;;;;;;5087250;27;20382;-65